PDT,Max TemperatureF,Mean TemperatureF,Min TemperatureF,Max Dew PointF,MeanDew PointF,Min DewpointF,Max Humidity, Mean Humidity, Min Humidity, Max Sea Level PressureIn, Mean Sea Level PressureIn, Min Sea Level PressureIn, Max VisibilityMiles, Mean VisibilityMiles, Min VisibilityMiles, Max Wind SpeedMPH, Mean Wind SpeedMPH, Max Gust SpeedMPH,PrecipitationIn, CloudCover, Events, WindDirDegrees
2012-10-1,86,61,35,31,24,20,56,33,10,30.28,30.15,30.05,10,10,10,13,5,32,0.00,0,,133
2012-10-2,88,61,33,27,21,17,48,28,8,30.08,29.98,29.90,10,10,10,22,6,29,0.00,0,,257
2012-10-3,74,53,31,23,11,-4,52,31,9,30.11,30.06,29.95,10,10,10,18,7,24,0.00,0,,356
2012-10-4,79,53,26,19,6,-3,42,25,8,30.15,30.08,29.99,10,10,10,20,5,25,0.00,0,,315
2012-10-5,72,50,28,21,12,2,39,25,10,30.21,30.11,30.06,10,10,10,13,5,18,0.00,0,,353
2012-10-6,70,55,39,14,9,0,30,20,9,30.16,30.09,30.01,10,10,8,22,10,29,0.00,0,,29
2012-10-7,71,46,20,8,4,0,45,26,6,30.17,30.04,29.96,10,10,10,14,5,18,0.00,0,,40
2012-10-8,75,49,23,6,4,-2,37,22,6,30.05,29.96,29.89,10,10,7,10,4,13,0.00,0,,185
2012-10-9,78,52,25,16,10,-1,38,24,9,30.03,29.93,29.88,10,10,10,21,6,26,0.00,0,,44
2012-10-10,77,58,39,22,18,13,36,25,13,29.99,29.89,29.82,10,10,9,15,4,20,0.00,0,,68
2012-10-11,77,54,30,43,30,13,57,39,21,29.95,29.85,29.79,10,10,8,17,6,28,T,3,Rain,143
2012-10-12,72,59,46,46,43,38,83,59,35,30.01,29.87,29.79,10,10,10,16,8,21,T,3,,178
2012-10-13,71,55,38,37,32,27,71,49,26,30.30,30.19,30.03,10,10,10,12,4,17,0.00,1,,244
2012-10-14,76,55,34,35,30,26,75,47,19,30.33,30.20,30.03,10,10,10,14,7,18,0.00,0,,150
2012-10-15,75,58,40,35,30,25,46,33,19,30.10,30.02,29.92,10,10,10,15,7,20,0.00,1,,198
2012-10-16,77,57,36,46,32,13,48,32,15,30.14,29.92,29.83,10,10,10,29,13,38,0.00,2,,273
2012-10-17,65,42,19,22,15,5,74,43,11,30.27,30.21,30.12,10,10,10,15,5,18,0.00,0,,48
2012-10-18,73,47,20,15,10,6,57,33,9,30.34,30.21,30.10,10,10,10,14,4,17,0.00,0,,119
2012-10-19,78,52,26,26,16,5,38,25,11,30.14,29.98,29.79,10,10,10,16,6,28,0.00,0,,183
2012-10-20,70,57,44,38,27,16,48,34,19,29.82,29.74,29.67,10,10,10,21,9,28,0.00,0,,262
2012-10-21,65,49,32,28,20,12,64,40,16,29.82,29.76,29.71,10,10,10,25,6,38,0.00,3,,248
2012-10-22,49,42,34,40,32,12,92,59,25,29.77,29.68,29.58,10,9,3,14,7,28,0.31,7,Rain,222
2012-10-23,45,37,28,34,29,24,92,69,45,29.99,29.90,29.75,10,7,0,25,7,30,0.10,6,Fog-Snow,207
2012-10-24,44,34,23,36,30,21,100,81,62,30.19,30.05,29.96,10,7,1,17,4,22,0.12,6,Rain-Snow,167
2012-10-25,47,36,24,34,27,22,96,67,37,30.48,30.34,30.18,10,10,8,12,3,17,T,5,Snow,338
2012-10-26,53,36,19,26,23,18,88,60,32,30.48,30.33,30.20,10,10,10,16,8,20,0.00,0,,138
2012-10-27,61,43,25,34,29,23,92,62,32,30.24,30.19,30.14,10,10,10,12,5,14,0.00,0,,171
2012-10-28,68,48,27,39,34,28,92,63,34,30.20,30.11,30.04,10,10,10,9,3,13,0.00,0,,188
2012-10-29,72,54,35,35,29,23,82,49,16,30.19,30.12,30.06,10,10,10,15,6,20,0.00,0,,174
2012-10-30,75,51,26,30,24,19,78,46,14,30.19,30.08,30.00,10,10,10,14,3,18,0.00,0,,139
2012-10-31,66,50,33,28,24,21,70,45,20,30.01,29.93,29.87,10,10,10,10,3,12,0.00,0,,150